sensor_id;sensor_type;location;lat;lon;timestamp;pressure;altitude;pressure_sealevel;temperature;humidity
54872;BME280;43914;57.680;11.982;2023-03-21T00:00:57;100441.54;;;3.90;100.00
54872;BME280;43914;57.680;11.982;2023-03-21T00:03:23;100439.20;;;3.90;100.00
54872;BME280;43914;57.680;11.982;2023-03-21T00:05:49;100439.59;;;3.92;100.00
54872;BME280;43914;57.680;11.982;2023-03-21T00:08:19;100438.65;;;3.92;100.00
54872;BME280;43914;57.680;11.982;2023-03-21T00:10:45;100438.91;;;3.95;100.00
54872;BME280;43914;57.680;11.982;2023-03-21T00:13:11;100438.56;;;3.97;100.00
54872;BME280;43914;57.680;11.982;2023-03-21T00:15:38;100440.55;;;3.98;100.00
54872;BME280;43914;57.680;11.982;2023-03-21T00:18:15;100437.35;;;3.98;100.00
54872;BME280;43914;57.680;11.982;2023-03-21T00:20:41;100432.62;;;3.98;100.00
54872;BME280;43914;57.680;11.982;2023-03-21T00:23:11;100435.90;;;3.99;100.00
54872;BME280;43914;57.680;11.982;2023-03-21T00:25:37;100426.45;;;3.95;100.00
54872;BME280;43914;57.680;11.982;2023-03-21T00:28:02;100429.34;;;4.00;100.00
54872;BME280;43914;57.680;11.982;2023-03-21T00:30:28;100427.25;;;4.02;100.00
54872;BME280;43914;57.680;11.982;2023-03-21T00:32:53;100432.73;;;4.02;100.00
54872;BME280;43914;57.680;11.982;2023-03-21T00:35:19;100431.71;;;4.03;100.00
54872;BME280;43914;57.680;11.982;2023-03-21T00:37:44;100429.25;;;4.03;100.00
54872;BME280;43914;57.680;11.982;2023-03-21T00:40:11;100428.12;;;4.02;100.00
54872;BME280;43914;57.680;11.982;2023-03-21T00:42:37;100430.67;;;4.01;100.00
54872;BME280;43914;57.680;11.982;2023-03-21T00:45:03;100427.80;;;4.02;100.00
54872;BME280;43914;57.680;11.982;2023-03-21T00:47:30;100429.11;;;3.99;100.00
54872;BME280;43914;57.680;11.982;2023-03-21T00:49:56;100426.05;;;3.98;100.00
54872;BME280;43914;57.680;11.982;2023-03-21T00:52:21;100424.73;;;3.99;100.00
54872;BME280;43914;57.680;11.982;2023-03-21T00:54:47;100419.94;;;3.99;100.00
54872;BME280;43914;57.680;11.982;2023-03-21T00:57:13;100422.61;;;3.97;100.00
54872;BME280;43914;57.680;11.982;2023-03-21T00:59:38;100420.63;;;3.95;100.00
54872;BME280;43914;57.680;11.982;2023-03-21T01:02:04;100422.70;;;3.92;100.00
54872;BME280;43914;57.680;11.982;2023-03-21T01:04:32;100419.67;;;3.87;100.00
54872;BME280;43914;57.680;11.982;2023-03-21T01:06:59;100417.29;;;3.82;100.00
54872;BME280;43914;57.680;11.982;2023-03-21T01:09:25;100425.52;;;3.81;100.00
54872;BME280;43914;57.680;11.982;2023-03-21T01:11:51;100424.33;;;3.81;100.00
54872;BME280;43914;57.680;11.982;2023-03-21T01:14:19;100428.25;;;3.84;100.00
54872;BME280;43914;57.680;11.982;2023-03-21T01:16:45;100424.87;;;3.86;100.00
54872;BME280;43914;57.680;11.982;2023-03-21T01:19:12;100426.25;;;3.88;100.00
54872;BME280;43914;57.680;11.982;2023-03-21T01:21:38;100423.95;;;3.88;100.00
54872;BME280;43914;57.680;11.982;2023-03-21T01:24:04;100429.81;;;3.92;100.00
54872;BME280;43914;57.680;11.982;2023-03-21T01:26:30;100425.23;;;3.90;100.00
54872;BME280;43914;57.680;11.982;2023-03-21T01:28:55;100421.71;;;3.93;100.00
54872;BME280;43914;57.680;11.982;2023-03-21T01:31:21;100420.98;;;3.92;100.00
54872;BME280;43914;57.680;11.982;2023-03-21T01:33:47;100420.79;;;3.92;100.00
54872;BME280;43914;57.680;11.982;2023-03-21T01:36:20;100420.17;;;3.93;100.00
54872;BME280;43914;57.680;11.982;2023-03-21T01:38:46;100418.55;;;3.93;100.00
54872;BME280;43914;57.680;11.982;2023-03-21T01:41:36;100417.14;;;3.91;100.00
54872;BME280;43914;57.680;11.982;2023-03-21T01:44:02;100416.48;;;3.90;100.00
54872;BME280;43914;57.680;11.982;2023-03-21T01:49:03;100417.92;;;3.86;100.00
54872;BME280;43914;57.680;11.982;2023-03-21T01:51:35;100422.38;;;3.84;100.00
54872;BME280;43914;57.680;11.982;2023-03-21T01:54:03;100418.29;;;3.83;100.00
54872;BME280;43914;57.680;11.982;2023-03-21T01:56:36;100425.98;;;3.80;100.00
54872;BME280;43914;57.680;11.982;2023-03-21T01:59:42;100431.17;;;3.78;100.00
54872;BME280;43914;57.680;11.982;2023-03-21T02:02:12;100429.10;;;3.77;100.00
54872;BME280;43914;57.680;11.982;2023-03-21T02:04:42;100427.40;;;3.74;100.00
54872;BME280;43914;57.680;11.982;2023-03-21T02:07:18;100428.42;;;3.71;100.00
54872;BME280;43914;57.680;11.982;2023-03-21T02:09:50;100427.13;;;3.68;100.00
54872;BME280;43914;57.680;11.982;2023-03-21T02:12:18;100429.23;;;3.66;100.00
54872;BME280;43914;57.680;11.982;2023-03-21T02:14:45;100434.01;;;3.67;100.00
54872;BME280;43914;57.680;11.982;2023-03-21T02:22:57;100445.67;;;3.72;100.00
54872;BME280;43914;57.680;11.982;2023-03-21T02:31:04;100445.67;;;3.76;100.00
54872;BME280;43914;57.680;11.982;2023-03-21T02:36:16;100453.55;;;3.77;100.00
54872;BME280;43914;57.680;11.982;2023-03-21T02:47:13;100448.40;;;3.71;100.00
54872;BME280;43914;57.680;11.982;2023-03-21T02:49:57;100445.83;;;3.70;100.00
54872;BME280;43914;57.680;11.982;2023-03-21T02:52:31;100441.86;;;3.69;100.00
54872;BME280;43914;57.680;11.982;2023-03-21T02:54:59;100439.75;;;3.68;100.00
54872;BME280;43914;57.680;11.982;2023-03-21T02:57:27;100436.64;;;3.67;100.00
54872;BME280;43914;57.680;11.982;2023-03-21T02:59:54;100438.70;;;3.64;100.00
54872;BME280;43914;57.680;11.982;2023-03-21T03:02:22;100438.21;;;3.61;100.00
54872;BME280;43914;57.680;11.982;2023-03-21T03:04:49;100435.36;;;3.57;100.00
54872;BME280;43914;57.680;11.982;2023-03-21T03:07:43;100431.20;;;3.57;100.00
54872;BME280;43914;57.680;11.982;2023-03-21T03:10:17;100428.98;;;3.56;100.00
54872;BME280;43914;57.680;11.982;2023-03-21T03:18:31;100426.16;;;3.50;100.00
54872;BME280;43914;57.680;11.982;2023-03-21T03:24:21;100427.85;;;3.47;100.00
54872;BME280;43914;57.680;11.982;2023-03-21T03:26:50;100420.56;;;3.45;100.00
54872;BME280;43914;57.680;11.982;2023-03-21T03:29:19;100419.30;;;3.45;100.00
54872;BME280;43914;57.680;11.982;2023-03-21T03:31:54;100422.64;;;3.42;100.00
54872;BME280;43914;57.680;11.982;2023-03-21T03:34:23;100425.52;;;3.40;100.00
54872;BME280;43914;57.680;11.982;2023-03-21T03:36:54;100425.88;;;3.40;100.00
54872;BME280;43914;57.680;11.982;2023-03-21T03:39:26;100431.27;;;3.41;100.00
54872;BME280;43914;57.680;11.982;2023-03-21T03:42:12;100431.05;;;3.43;100.00
54872;BME280;43914;57.680;11.982;2023-03-21T03:44:40;100437.04;;;3.43;100.00
54872;BME280;43914;57.680;11.982;2023-03-21T03:47:11;100436.23;;;3.43;100.00
54872;BME280;43914;57.680;11.982;2023-03-21T03:49:45;100437.39;;;3.45;100.00
54872;BME280;43914;57.680;11.982;2023-03-21T03:52:20;100439.10;;;3.46;100.00
54872;BME280;43914;57.680;11.982;2023-03-21T03:54:48;100435.59;;;3.48;100.00
54872;BME280;43914;57.680;11.982;2023-03-21T03:57:15;100437.28;;;3.46;100.00
54872;BME280;43914;57.680;11.982;2023-03-21T03:59:43;100440.50;;;3.46;100.00
54872;BME280;43914;57.680;11.982;2023-03-21T04:02:09;100438.98;;;3.47;100.00
54872;BME280;43914;57.680;11.982;2023-03-21T04:04:35;100433.80;;;3.48;100.00
54872;BME280;43914;57.680;11.982;2023-03-21T04:07:01;100429.84;;;3.47;100.00
54872;BME280;43914;57.680;11.982;2023-03-21T04:09:29;100427.16;;;3.47;100.00
54872;BME280;43914;57.680;11.982;2023-03-21T04:11:55;100420.95;;;3.47;100.00
54872;BME280;43914;57.680;11.982;2023-03-21T04:14:22;100424.59;;;3.48;100.00
54872;BME280;43914;57.680;11.982;2023-03-21T04:16:48;100428.77;;;3.47;100.00
54872;BME280;43914;57.680;11.982;2023-03-21T04:19:15;100429.86;;;3.46;100.00
54872;BME280;43914;57.680;11.982;2023-03-21T04:21:41;100425.08;;;3.49;100.00
54872;BME280;43914;57.680;11.982;2023-03-21T04:24:07;100422.46;;;3.50;100.00
54872;BME280;43914;57.680;11.982;2023-03-21T04:26:33;100423.42;;;3.49;100.00
54872;BME280;43914;57.680;11.982;2023-03-21T04:29:01;100417.50;;;3.48;100.00
54872;BME280;43914;57.680;11.982;2023-03-21T04:31:28;100418.20;;;3.48;100.00
54872;BME280;43914;57.680;11.982;2023-03-21T04:33:59;100418.53;;;3.49;100.00
54872;BME280;43914;57.680;11.982;2023-03-21T04:36:26;100415.34;;;3.49;100.00
54872;BME280;43914;57.680;11.982;2023-03-21T04:38:56;100413.70;;;3.49;100.00
54872;BME280;43914;57.680;11.982;2023-03-21T04:41:28;100414.95;;;3.49;100.00
54872;BME280;43914;57.680;11.982;2023-03-21T04:43:54;100415.65;;;3.49;100.00
54872;BME280;43914;57.680;11.982;2023-03-21T04:46:20;100420.71;;;3.50;100.00
54872;BME280;43914;57.680;11.982;2023-03-21T04:48:46;100422.91;;;3.51;100.00
54872;BME280;43914;57.680;11.982;2023-03-21T04:51:12;100417.85;;;3.52;100.00
54872;BME280;43914;57.680;11.982;2023-03-21T04:53:37;100418.18;;;3.52;100.00
54872;BME280;43914;57.680;11.982;2023-03-21T04:56:04;100421.38;;;3.52;100.00
54872;BME280;43914;57.680;11.982;2023-03-21T04:58:31;100427.21;;;3.52;100.00
54872;BME280;43914;57.680;11.982;2023-03-21T05:00:57;100423.23;;;3.53;100.00
54872;BME280;43914;57.680;11.982;2023-03-21T05:03:23;100425.87;;;3.53;100.00
54872;BME280;43914;57.680;11.982;2023-03-21T05:05:49;100432.05;;;3.55;100.00
54872;BME280;43914;57.680;11.982;2023-03-21T05:08:15;100433.09;;;3.52;100.00
54872;BME280;43914;57.680;11.982;2023-03-21T05:10:41;100437.27;;;3.53;100.00
54872;BME280;43914;57.680;11.982;2023-03-21T05:13:07;100438.96;;;3.53;100.00
54872;BME280;43914;57.680;11.982;2023-03-21T05:15:32;100434.38;;;3.53;100.00
54872;BME280;43914;57.680;11.982;2023-03-21T05:17:58;100433.47;;;3.53;100.00
54872;BME280;43914;57.680;11.982;2023-03-21T05:20:24;100435.76;;;3.55;100.00
54872;BME280;43914;57.680;11.982;2023-03-21T05:22:50;100438.79;;;3.55;100.00
54872;BME280;43914;57.680;11.982;2023-03-21T05:25:17;100435.45;;;3.55;100.00
54872;BME280;43914;57.680;11.982;2023-03-21T05:27:46;100434.88;;;3.52;100.00
54872;BME280;43914;57.680;11.982;2023-03-21T05:30:19;100438.86;;;3.49;100.00
54872;BME280;43914;57.680;11.982;2023-03-21T05:32:45;100432.32;;;3.43;100.00
54872;BME280;43914;57.680;11.982;2023-03-21T05:35:11;100434.27;;;3.35;100.00
54872;BME280;43914;57.680;11.982;2023-03-21T05:37:37;100446.67;;;3.37;100.00
54872;BME280;43914;57.680;11.982;2023-03-21T05:40:06;100444.77;;;3.38;100.00
54872;BME280;43914;57.680;11.982;2023-03-21T05:42:32;100448.54;;;3.40;100.00
54872;BME280;43914;57.680;11.982;2023-03-21T05:44:57;100447.81;;;3.40;100.00
54872;BME280;43914;57.680;11.982;2023-03-21T05:47:23;100447.27;;;3.38;100.00
54872;BME280;43914;57.680;11.982;2023-03-21T05:49:48;100440.00;;;3.40;100.00
54872;BME280;43914;57.680;11.982;2023-03-21T05:52:15;100436.45;;;3.40;100.00
54872;BME280;43914;57.680;11.982;2023-03-21T05:54:40;100435.90;;;3.40;100.00
54872;BME280;43914;57.680;11.982;2023-03-21T05:57:07;100437.20;;;3.38;100.00
54872;BME280;43914;57.680;11.982;2023-03-21T05:59:32;100436.11;;;3.35;100.00
54872;BME280;43914;57.680;11.982;2023-03-21T06:01:58;100439.03;;;3.34;100.00
54872;BME280;43914;57.680;11.982;2023-03-21T06:04:24;100440.66;;;3.33;100.00
54872;BME280;43914;57.680;11.982;2023-03-21T06:06:49;100438.54;;;3.29;100.00
54872;BME280;43914;57.680;11.982;2023-03-21T06:09:20;100447.42;;;3.33;100.00
54872;BME280;43914;57.680;11.982;2023-03-21T06:11:49;100446.52;;;3.33;100.00
54872;BME280;43914;57.680;11.982;2023-03-21T06:14:16;100447.39;;;3.33;100.00
54872;BME280;43914;57.680;11.982;2023-03-21T06:16:43;100446.16;;;3.31;100.00
54872;BME280;43914;57.680;11.982;2023-03-21T06:19:08;100447.44;;;3.29;100.00
54872;BME280;43914;57.680;11.982;2023-03-21T06:21:34;100446.23;;;3.28;100.00
54872;BME280;43914;57.680;11.982;2023-03-21T06:23:59;100444.33;;;3.30;100.00
54872;BME280;43914;57.680;11.982;2023-03-21T06:26:25;100439.77;;;3.31;100.00
54872;BME280;43914;57.680;11.982;2023-03-21T06:28:51;100440.88;;;3.33;100.00
54872;BME280;43914;57.680;11.982;2023-03-21T06:31:18;100438.45;;;3.32;100.00
54872;BME280;43914;57.680;11.982;2023-03-21T06:33:47;100439.69;;;3.30;100.00
54872;BME280;43914;57.680;11.982;2023-03-21T06:36:12;100437.64;;;3.29;100.00
54872;BME280;43914;57.680;11.982;2023-03-21T06:38:38;100434.86;;;3.27;100.00
54872;BME280;43914;57.680;11.982;2023-03-21T06:41:04;100432.14;;;3.24;100.00
54872;BME280;43914;57.680;11.982;2023-03-21T06:43:30;100427.91;;;3.20;100.00
54872;BME280;43914;57.680;11.982;2023-03-21T06:45:56;100428.75;;;3.21;100.00
54872;BME280;43914;57.680;11.982;2023-03-21T06:48:22;100425.17;;;3.21;100.00
54872;BME280;43914;57.680;11.982;2023-03-21T06:50:49;100427.66;;;3.21;100.00
54872;BME280;43914;57.680;11.982;2023-03-21T06:53:15;100423.58;;;3.19;100.00
54872;BME280;43914;57.680;11.982;2023-03-21T06:55:41;100424.81;;;3.19;100.00
54872;BME280;43914;57.680;11.982;2023-03-21T06:58:06;100420.44;;;3.20;100.00
54872;BME280;43914;57.680;11.982;2023-03-21T07:00:32;100414.73;;;3.23;100.00
54872;BME280;43914;57.680;11.982;2023-03-21T07:02:58;100410.03;;;3.24;100.00
54872;BME280;43914;57.680;11.982;2023-03-21T07:05:24;100413.33;;;3.23;100.00
54872;BME280;43914;57.680;11.982;2023-03-21T07:07:50;100415.67;;;3.24;100.00
54872;BME280;43914;57.680;11.982;2023-03-21T07:10:15;100415.90;;;3.27;100.00
54872;BME280;43914;57.680;11.982;2023-03-21T07:12:41;100419.55;;;3.31;100.00
54872;BME280;43914;57.680;11.982;2023-03-21T07:15:08;100421.61;;;3.34;100.00
54872;BME280;43914;57.680;11.982;2023-03-21T07:17:33;100421.38;;;3.37;100.00
54872;BME280;43914;57.680;11.982;2023-03-21T07:19:59;100427.19;;;3.37;100.00
54872;BME280;43914;57.680;11.982;2023-03-21T07:22:25;100428.81;;;3.37;100.00
54872;BME280;43914;57.680;11.982;2023-03-21T07:24:50;100434.35;;;3.36;100.00
54872;BME280;43914;57.680;11.982;2023-03-21T07:27:17;100441.44;;;3.40;100.00
54872;BME280;43914;57.680;11.982;2023-03-21T07:29:43;100442.10;;;3.41;100.00
54872;BME280;43914;57.680;11.982;2023-03-21T07:32:09;100446.95;;;3.43;100.00
54872;BME280;43914;57.680;11.982;2023-03-21T07:34:35;100445.20;;;3.45;100.00
54872;BME280;43914;57.680;11.982;2023-03-21T07:37:02;100448.19;;;3.48;100.00
54872;BME280;43914;57.680;11.982;2023-03-21T07:39:29;100442.62;;;3.48;100.00
54872;BME280;43914;57.680;11.982;2023-03-21T07:41:54;100442.55;;;3.49;100.00
54872;BME280;43914;57.680;11.982;2023-03-21T07:44:23;100442.11;;;3.50;100.00
54872;BME280;43914;57.680;11.982;2023-03-21T07:46:49;100445.15;;;3.52;100.00
54872;BME280;43914;57.680;11.982;2023-03-21T07:49:15;100444.27;;;3.53;100.00
54872;BME280;43914;57.680;11.982;2023-03-21T07:51:41;100443.50;;;3.56;100.00
54872;BME280;43914;57.680;11.982;2023-03-21T07:54:06;100440.45;;;3.56;100.00
54872;BME280;43914;57.680;11.982;2023-03-21T07:56:32;100440.00;;;3.57;100.00
54872;BME280;43914;57.680;11.982;2023-03-21T07:58:58;100438.92;;;3.59;100.00
54872;BME280;43914;57.680;11.982;2023-03-21T08:01:24;100437.56;;;3.63;100.00
54872;BME280;43914;57.680;11.982;2023-03-21T08:03:50;100434.88;;;3.67;100.00
54872;BME280;43914;57.680;11.982;2023-03-21T08:06:19;100440.43;;;3.70;100.00
54872;BME280;43914;57.680;11.982;2023-03-21T08:08:45;100441.14;;;3.73;100.00
54872;BME280;43914;57.680;11.982;2023-03-21T08:11:11;100440.36;;;3.76;100.00
54872;BME280;43914;57.680;11.982;2023-03-21T08:13:37;100436.90;;;3.77;100.00
54872;BME280;43914;57.680;11.982;2023-03-21T08:16:03;100432.63;;;3.78;100.00
54872;BME280;43914;57.680;11.982;2023-03-21T08:18:29;100426.36;;;3.76;100.00
54872;BME280;43914;57.680;11.982;2023-03-21T08:20:55;100433.34;;;3.79;100.00
54872;BME280;43914;57.680;11.982;2023-03-21T08:23:21;100435.58;;;3.84;100.00
54872;BME280;43914;57.680;11.982;2023-03-21T08:25:50;100434.23;;;3.86;100.00
54872;BME280;43914;57.680;11.982;2023-03-21T08:28:17;100434.92;;;3.86;100.00
54872;BME280;43914;57.680;11.982;2023-03-21T08:30:42;100433.93;;;3.88;100.00
54872;BME280;43914;57.680;11.982;2023-03-21T08:33:08;100428.70;;;3.89;100.00
54872;BME280;43914;57.680;11.982;2023-03-21T08:35:34;100429.68;;;3.89;100.00
54872;BME280;43914;57.680;11.982;2023-03-21T08:38:03;100432.48;;;3.92;100.00
54872;BME280;43914;57.680;11.982;2023-03-21T08:40:29;100433.56;;;3.97;100.00
54872;BME280;43914;57.680;11.982;2023-03-21T08:42:55;100430.52;;;4.03;100.00
54872;BME280;43914;57.680;11.982;2023-03-21T08:45:20;100426.48;;;4.08;100.00
54872;BME280;43914;57.680;11.982;2023-03-21T08:47:47;100424.59;;;4.15;100.00
54872;BME280;43914;57.680;11.982;2023-03-21T08:50:15;100418.27;;;4.20;100.00
54872;BME280;43914;57.680;11.982;2023-03-21T08:52:41;100419.42;;;4.30;100.00
54872;BME280;43914;57.680;11.982;2023-03-21T08:55:08;100417.52;;;4.35;100.00
54872;BME280;43914;57.680;11.982;2023-03-21T08:57:33;100410.90;;;4.39;100.00
54872;BME280;43914;57.680;11.982;2023-03-21T08:59:59;100415.56;;;4.42;100.00
54872;BME280;43914;57.680;11.982;2023-03-21T09:02:25;100420.61;;;4.47;100.00
54872;BME280;43914;57.680;11.982;2023-03-21T09:04:51;100414.58;;;4.52;100.00
54872;BME280;43914;57.680;11.982;2023-03-21T09:07:19;100415.36;;;4.57;100.00
54872;BME280;43914;57.680;11.982;2023-03-21T09:09:46;100411.03;;;4.61;100.00
54872;BME280;43914;57.680;11.982;2023-03-21T09:12:11;100406.60;;;4.68;100.00
54872;BME280;43914;57.680;11.982;2023-03-21T09:14:37;100408.86;;;4.76;100.00
54872;BME280;43914;57.680;11.982;2023-03-21T09:17:02;100406.85;;;4.84;100.00
54872;BME280;43914;57.680;11.982;2023-03-21T09:19:28;100407.77;;;4.88;100.00
54872;BME280;43914;57.680;11.982;2023-03-21T09:21:54;100409.80;;;4.93;100.00
54872;BME280;43914;57.680;11.982;2023-03-21T09:24:20;100401.41;;;4.97;100.00
54872;BME280;43914;57.680;11.982;2023-03-21T09:26:46;100401.48;;;4.98;100.00
54872;BME280;43914;57.680;11.982;2023-03-21T09:29:15;100401.61;;;4.97;100.00
54872;BME280;43914;57.680;11.982;2023-03-21T09:31:41;100401.85;;;4.98;100.00
54872;BME280;43914;57.680;11.982;2023-03-21T09:34:07;100400.95;;;5.00;100.00
54872;BME280;43914;57.680;11.982;2023-03-21T09:36:33;100400.79;;;5.05;100.00
54872;BME280;43914;57.680;11.982;2023-03-21T09:39:00;100400.48;;;5.13;100.00
54872;BME280;43914;57.680;11.982;2023-03-21T09:44:51;100399.64;;;5.20;100.00
54872;BME280;43914;57.680;11.982;2023-03-21T09:47:28;100405.42;;;5.25;100.00
54872;BME280;43914;57.680;11.982;2023-03-21T09:49:58;100406.66;;;5.28;100.00
54872;BME280;43914;57.680;11.982;2023-03-21T09:52:50;100406.97;;;5.33;100.00
54872;BME280;43914;57.680;11.982;2023-03-21T09:55:36;100405.44;;;5.36;100.00
54872;BME280;43914;57.680;11.982;2023-03-21T09:58:06;100405.43;;;5.47;100.00
54872;BME280;43914;57.680;11.982;2023-03-21T10:00:35;100406.02;;;5.58;100.00
54872;BME280;43914;57.680;11.982;2023-03-21T10:03:05;100405.20;;;5.68;100.00
54872;BME280;43914;57.680;11.982;2023-03-21T10:05:38;100401.38;;;5.74;100.00
54872;BME280;43914;57.680;11.982;2023-03-21T10:08:17;100402.05;;;5.85;100.00
54872;BME280;43914;57.680;11.982;2023-03-21T10:10:56;100400.41;;;5.92;100.00
54872;BME280;43914;57.680;11.982;2023-03-21T10:14:30;100394.25;;;6.02;100.00
54872;BME280;43914;57.680;11.982;2023-03-21T10:16:41;100390.92;;;6.13;100.00
54872;BME280;43914;57.680;11.982;2023-03-21T10:19:11;100388.13;;;6.11;100.00
54872;BME280;43914;57.680;11.982;2023-03-21T10:21:43;100384.05;;;6.11;100.00
54872;BME280;43914;57.680;11.982;2023-03-21T10:24:22;100382.65;;;6.14;100.00
54872;BME280;43914;57.680;11.982;2023-03-21T10:26:50;100378.70;;;6.14;100.00
54872;BME280;43914;57.680;11.982;2023-03-21T10:29:18;100378.35;;;6.11;100.00
54872;BME280;43914;57.680;11.982;2023-03-21T10:31:49;100372.86;;;6.19;100.00
54872;BME280;43914;57.680;11.982;2023-03-21T10:34:39;100371.15;;;6.20;99.71
54872;BME280;43914;57.680;11.982;2023-03-21T10:37:06;100367.91;;;6.19;99.61
54872;BME280;43914;57.680;11.982;2023-03-21T10:39:48;100366.34;;;6.20;99.91
54872;BME280;43914;57.680;11.982;2023-03-21T10:42:20;100362.75;;;6.34;100.00
54872;BME280;43914;57.680;11.982;2023-03-21T10:44:50;100358.86;;;6.52;100.00
54872;BME280;43914;57.680;11.982;2023-03-21T10:47:31;100363.02;;;6.61;99.91
54872;BME280;43914;57.680;11.982;2023-03-21T10:50:04;100355.81;;;6.55;97.14
54872;BME280;43914;57.680;11.982;2023-03-21T10:52:31;100353.61;;;6.54;97.42
54872;BME280;43914;57.680;11.982;2023-03-21T10:55:20;100348.34;;;6.51;97.13
54872;BME280;43914;57.680;11.982;2023-03-21T10:57:47;100351.37;;;6.44;96.18
54872;BME280;43914;57.680;11.982;2023-03-21T11:00:21;100355.96;;;6.39;96.85
54872;BME280;43914;57.680;11.982;2023-03-21T11:02:48;100352.27;;;6.37;97.89
54872;BME280;43914;57.680;11.982;2023-03-21T11:05:24;100348.59;;;6.45;97.88
54872;BME280;43914;57.680;11.982;2023-03-21T11:08:18;100347.56;;;6.52;97.81
54872;BME280;43914;57.680;11.982;2023-03-21T11:13:32;100343.86;;;6.69;95.75
54872;BME280;43914;57.680;11.982;2023-03-21T11:16:05;100340.45;;;6.72;94.56
54872;BME280;43914;57.680;11.982;2023-03-21T11:18:31;100337.92;;;6.74;94.23
54872;BME280;43914;57.680;11.982;2023-03-21T11:21:05;100331.47;;;6.75;94.05
54872;BME280;43914;57.680;11.982;2023-03-21T11:23:34;100326.20;;;6.76;93.72
54872;BME280;43914;57.680;11.982;2023-03-21T11:26:02;100321.39;;;6.77;93.41
54872;BME280;43914;57.680;11.982;2023-03-21T11:28:36;100325.53;;;6.85;93.65
54872;BME280;43914;57.680;11.982;2023-03-21T11:31:04;100317.96;;;6.89;92.65
54872;BME280;43914;57.680;11.982;2023-03-21T11:33:37;100315.08;;;6.91;92.87
54872;BME280;43914;57.680;11.982;2023-03-21T11:38:42;100307.18;;;7.08;92.61
54872;BME280;43914;57.680;11.982;2023-03-21T11:41:08;100302.69;;;7.13;91.50
54872;BME280;43914;57.680;11.982;2023-03-21T11:43:37;100297.81;;;7.21;90.14
54872;BME280;43914;57.680;11.982;2023-03-21T11:48:29;100294.38;;;7.27;88.52
54872;BME280;43914;57.680;11.982;2023-03-21T11:51:03;100296.48;;;7.26;88.54
54872;BME280;43914;57.680;11.982;2023-03-21T11:53:38;100292.58;;;7.19;89.31
54872;BME280;43914;57.680;11.982;2023-03-21T11:56:28;100288.87;;;7.27;89.33
54872;BME280;43914;57.680;11.982;2023-03-21T12:07:56;100281.71;;;7.12;89.82
54872;BME280;43914;57.680;11.982;2023-03-21T12:13:14;100274.19;;;7.21;91.15
54872;BME280;43914;57.680;11.982;2023-03-21T12:15:56;100270.42;;;7.39;90.66
54872;BME280;43914;57.680;11.982;2023-03-21T12:18:44;100262.45;;;7.49;90.51
54872;BME280;43914;57.680;11.982;2023-03-21T12:24:10;100263.29;;;7.78;88.87
54872;BME280;43914;57.680;11.982;2023-03-21T12:39:54;100255.75;;;8.49;81.72
54872;BME280;43914;57.680;11.982;2023-03-21T12:42:30;100259.27;;;8.48;82.41
54872;BME280;43914;57.680;11.982;2023-03-21T12:47:33;100257.56;;;8.52;78.50
54872;BME280;43914;57.680;11.982;2023-03-21T12:50:14;100253.94;;;8.57;77.18
54872;BME280;43914;57.680;11.982;2023-03-21T12:52:46;100245.66;;;8.55;75.09
54872;BME280;43914;57.680;11.982;2023-03-21T12:55:30;100247.11;;;8.53;74.69
54872;BME280;43914;57.680;11.982;2023-03-21T12:58:03;100240.35;;;8.56;75.98
54872;BME280;43914;57.680;11.982;2023-03-21T13:00:43;100239.73;;;8.52;75.69
54872;BME280;43914;57.680;11.982;2023-03-21T13:03:19;100240.39;;;8.52;75.51
54872;BME280;43914;57.680;11.982;2023-03-21T13:06:05;100229.41;;;8.52;74.81
54872;BME280;43914;57.680;11.982;2023-03-21T13:11:04;100226.20;;;8.71;75.68
54872;BME280;43914;57.680;11.982;2023-03-21T13:13:35;100229.22;;;8.71;73.07
54872;BME280;43914;57.680;11.982;2023-03-21T13:16:08;100226.29;;;8.57;73.28
54872;BME280;43914;57.680;11.982;2023-03-21T13:24:24;100220.48;;;8.06;74.27
54872;BME280;43914;57.680;11.982;2023-03-21T13:30:18;100211.03;;;7.79;77.09
54872;BME280;43914;57.680;11.982;2023-03-21T13:32:47;100208.75;;;7.62;77.00
54872;BME280;43914;57.680;11.982;2023-03-21T13:35:24;100205.42;;;7.50;78.12
54872;BME280;43914;57.680;11.982;2023-03-21T13:38:00;100196.48;;;7.48;78.52
54872;BME280;43914;57.680;11.982;2023-03-21T13:40:35;100198.45;;;7.47;79.32
54872;BME280;43914;57.680;11.982;2023-03-21T13:43:02;100196.42;;;7.48;80.03
54872;BME280;43914;57.680;11.982;2023-03-21T13:45:32;100193.08;;;7.46;80.74
54872;BME280;43914;57.680;11.982;2023-03-21T13:48:05;100188.09;;;7.43;81.26
54872;BME280;43914;57.680;11.982;2023-03-21T13:50:52;100183.16;;;7.41;81.82
54872;BME280;43914;57.680;11.982;2023-03-21T13:53:20;100183.36;;;7.34;81.99
54872;BME280;43914;57.680;11.982;2023-03-21T13:55:57;100177.81;;;7.25;82.29
54872;BME280;43914;57.680;11.982;2023-03-21T13:58:30;100170.90;;;7.14;82.68
54872;BME280;43914;57.680;11.982;2023-03-21T14:04:21;100166.41;;;6.97;84.71
54872;BME280;43914;57.680;11.982;2023-03-21T14:07:26;100164.23;;;6.91;85.61
54872;BME280;43914;57.680;11.982;2023-03-21T14:09:56;100155.71;;;6.80;86.45
54872;BME280;43914;57.680;11.982;2023-03-21T14:12:27;100155.33;;;6.69;87.40
54872;BME280;43914;57.680;11.982;2023-03-21T14:15:03;100155.73;;;6.61;88.18
54872;BME280;43914;57.680;11.982;2023-03-21T14:17:31;100155.42;;;6.50;88.58
54872;BME280;43914;57.680;11.982;2023-03-21T14:20:18;100152.56;;;6.39;89.23
54872;BME280;43914;57.680;11.982;2023-03-21T14:22:48;100145.66;;;6.26;89.64
54872;BME280;43914;57.680;11.982;2023-03-21T14:25:16;100144.27;;;6.16;90.54